Time;durP1;ratioP1;P1;durP2;ratioP2;P2;SDS_P1;SDS_P2;PMS_P1;PMS_P2;Temp;Humidity;BMP_temperature;BMP_pressure;BME280_temperature;BME280_humidity;BME280_pressure;Samples;Min_cycle;Max_cycle;Signal;HPM_P1;HPM_P2
2022/04/11 00:00:00;;;;;;;;;;;;;;;-0.46;100.00;96205.63;1030613;28;19928;-74
2022/04/11 00:00:30;;;;;;;;;;;;;;;-0.51;100.00;96203.56;1026835;28;19918;-72
2022/04/11 00:01:01;;;;;;;;;;;;;;;-0.53;100.00;96210.72;1026753;28;19910;-74
2022/04/11 00:01:31;;;;;;;;;;;;;;;-0.54;100.00;96201.38;1030881;28;19918;-75
2022/04/11 00:02:01;;;;;;;;;;;;;;;-0.56;100.00;96194.81;1030660;28;19964;-73
2022/04/11 00:02:32;;;;;;;;;;;;;;;-0.55;100.00;96211.84;1030787;28;19914;-73
2022/04/11 00:03:08;;;;;;;;;;;;;;;-0.57;100.00;96203.50;1034703;28;19913;-73
2022/04/11 00:03:38;;;;;;;;;;;;;;;-0.57;100.00;96208.66;1035607;28;19910;-72
2022/04/11 00:04:08;;;;;;;;;;;;;;;-0.59;100.00;96202.91;1038221;28;19913;-73
2022/04/11 00:04:38;;;;;;;;;;;;;;;-0.63;100.00;96209.41;1034802;28;19914;-73
2022/04/11 00:05:09;;;;;;;;;;;;;;;-0.63;100.00;96209.41;1030717;28;19961;-73
2022/04/11 00:05:39;;;;;;;;;;;;;;;-0.64;100.00;96205.22;1030810;28;19914;-72
2022/04/11 00:06:10;;;;;;;;;;;;;;;-0.66;100.00;96200.25;1034924;28;19961;-73
2022/04/11 00:06:40;;;;;;;;;;;;;;;-0.67;100.00;96200.41;1030247;28;19914;-70
2022/04/11 00:07:10;;;;;;;;;;;;;;;-0.69;100.00;96202.38;1027903;28;19921;-73
2022/04/11 00:07:41;;;;;;;;;;;;;;;-0.74;100.00;96208.88;1022765;29;19922;-75
2022/04/11 00:08:11;;;;;;;;;;;;;;;-0.78;100.00;96201.69;1022708;29;20649;-70
2022/04/11 00:08:41;;;;;;;;;;;;;;;-0.79;100.00;96202.66;1026512;28;19916;-74
2022/04/11 00:09:14;;;;;;;;;;;;;;;-0.83;100.00;96199.66;1022730;28;19958;-73
2022/04/11 00:09:45;;;;;;;;;;;;;;;-0.82;100.00;96206.38;1023208;28;20426;-74
2022/04/11 00:10:15;;;;;;;;;;;;;;;-0.84;100.00;96207.53;1026875;28;19942;-73
2022/04/11 00:10:46;;;;;;;;;;;;;;;-0.89;100.00;96202.16;1023475;28;20044;-72
2022/04/11 00:11:16;;;;;;;;;;;;;;;-0.89;100.00;96200.34;1031321;28;19996;-72
2022/04/11 00:11:49;;;;;;;;;;;;;;;-0.86;100.00;96200.00;1034931;28;19921;-73
2022/04/11 00:12:19;;;;;;;;;;;;;;;-0.86;100.00;96197.44;1031005;28;20355;-74
2022/04/11 00:12:50;;;;;;;;;;;;;;;-0.82;100.00;96201.22;1034748;28;20625;-73
2022/04/11 00:13:20;;;;;;;;;;;;;;;-0.83;100.00;96198.84;1026629;28;20421;-76
2022/04/11 00:13:50;;;;;;;;;;;;;;;-0.81;100.00;96200.25;1026461;28;19918;-73
2022/04/11 00:14:20;;;;;;;;;;;;;;;-0.83;100.00;96202.22;1024276;28;19907;-73
2022/04/11 00:14:51;;;;;;;;;;;;;;;-0.82;100.00;96201.22;1022720;29;19921;-72
2022/04/11 00:15:21;;;;;;;;;;;;;;;-1.11;100.00;96154.91;1030789;28;19910;-73
2022/04/11 00:15:51;;;;;;;;;;;;;;;-0.90;100.00;96196.19;1035827;28;19914;-71
2022/04/11 00:16:24;;;;;;;;;;;;;;;-0.90;100.00;96197.97;1034863;28;19925;-73
2022/04/11 00:16:55;;;;;;;;;;;;;;;-0.94;100.00;96197.50;1034302;28;19918;-74
2022/04/11 00:17:25;;;;;;;;;;;;;;;-0.97;100.00;96195.31;1037353;28;19917;-75
2022/04/11 00:17:55;;;;;;;;;;;;;;;-0.97;100.00;96190.97;1038944;28;20899;-74
2022/04/11 00:18:26;;;;;;;;;;;;;;;-0.94;100.00;96194.94;1038922;28;19941;-73
2022/04/11 00:18:57;;;;;;;;;;;;;;;-0.97;100.00;96193.53;1038614;28;20395;-72
2022/04/11 00:19:30;;;;;;;;;;;;;;;-1.00;100.00;96198.25;1042470;28;19901;-75
2022/04/11 00:20:01;;;;;;;;;;;;;;;-1.05;100.00;96190.25;1034733;28;19914;-73
2022/04/11 00:20:31;;;;;;;;;;;;;;;-1.07;100.00;96193.00;1035211;28;19935;-73
2022/04/11 00:21:01;;;;;;;;;;;;;;;-1.05;100.00;96192.81;1038553;28;20336;-73
2022/04/11 00:21:32;;;;;;;;;;;;;;;-1.08;100.00;96195.75;1034771;28;19913;-73
2022/04/11 00:22:02;;;;;;;;;;;;;;;-1.12;100.00;96202.22;1030530;28;20319;-74
2022/04/11 00:22:33;;;;;;;;;;;;;;;-1.10;100.00;96198.50;1026604;28;19914;-73
2022/04/11 00:23:04;;;;;;;;;;;;;;;-1.14;100.00;96199.84;1026592;28;19952;-75
2022/04/11 00:23:34;;;;;;;;;;;;;;;-1.16;100.00;96198.41;1030944;28;19905;-74
2022/04/11 00:24:05;;;;;;;;;;;;;;;-1.16;100.00;96203.56;1030544;28;19905;-73
2022/04/11 00:24:35;;;;;;;;;;;;;;;-1.18;100.00;96201.16;1034090;28;19918;-72
2022/04/11 00:25:05;;;;;;;;;;;;;;;-1.20;100.00;96197.97;1026542;28;19907;-73
2022/04/11 00:25:37;;;;;;;;;;;;;;;-1.21;100.00;96197.19;1030684;28;20367;-73
2022/04/11 00:26:07;;;;;;;;;;;;;;;-1.20;100.00;96205.69;1030601;28;19918;-74
2022/04/11 00:26:41;;;;;;;;;;;;;;;-1.24;100.00;96199.28;1030646;28;19914;-71
2022/04/11 00:27:11;;;;;;;;;;;;;;;-1.26;100.00;96202.06;1026878;28;19910;-72
2022/04/11 00:27:42;;;;;;;;;;;;;;;-1.30;100.00;96198.25;1026930;28;20307;-72
2022/04/11 00:28:12;;;;;;;;;;;;;;;-1.31;100.00;96201.78;1026700;28;20337;-73
2022/04/11 00:28:42;;;;;;;;;;;;;;;-1.31;100.00;96204.38;1026667;28;19918;-75
2022/04/11 00:29:15;;;;;;;;;;;;;;;-1.33;100.00;96202.94;1026814;28;19930;-74
2022/04/11 00:29:46;;;;;;;;;;;;;;;-1.30;100.00;96203.38;1027026;28;19953;-73
2022/04/11 00:30:16;;;;;;;;;;;;;;;-1.30;100.00;96200.81;1031034;28;20417;-74
2022/04/11 00:30:47;;;;;;;;;;;;;;;-1.33;100.00;96197.78;1035547;28;19984;-73
2022/04/11 00:31:17;;;;;;;;;;;;;;;-1.31;100.00;96199.22;1034605;28;19924;-74
2022/04/11 00:31:47;;;;;;;;;;;;;;;-1.29;100.00;96204.19;1034714;28;19921;-72
2022/04/11 00:32:24;;;;;;;;;;;;;;;-1.27;100.00;96202.25;1026471;28;19973;-73
2022/04/11 00:32:54;;;;;;;;;;;;;;;-1.31;100.00;96195.81;1026715;28;20363;-74
2022/04/11 00:33:24;;;;;;;;;;;;;;;-1.32;100.00;96199.38;1023151;28;19917;-74
2022/04/11 00:33:54;;;;;;;;;;;;;;;-1.30;100.00;96194.88;1019240;29;20011;-73
2022/04/11 00:34:25;;;;;;;;;;;;;;;-1.32;100.00;96200.19;1026183;28;19929;-75
2022/04/11 00:34:55;;;;;;;;;;;;;;;-1.33;100.00;96198.59;1026696;28;19918;-72
2022/04/11 00:35:25;;;;;;;;;;;;;;;-1.32;100.00;96195.03;1022540;29;19919;-73
2022/04/11 00:35:56;;;;;;;;;;;;;;;-1.32;100.00;96200.19;1034503;28;19921;-72
2022/04/11 00:36:29;;;;;;;;;;;;;;;-1.27;100.00;96194.53;1030720;28;20335;-73
2022/04/11 00:37:00;;;;;;;;;;;;;;;-1.23;100.00;96199.13;1029475;28;19944;-73
2022/04/11 00:37:33;;;;;;;;;;;;;;;-1.16;100.00;96201.00;1028089;28;20416;-75
2022/04/11 00:38:06;;;;;;;;;;;;;;;-1.13;100.00;96198.06;1031783;28;20347;-75
2022/04/11 00:38:36;;;;;;;;;;;;;;;-1.08;100.00;96198.31;1031602;28;20008;-75
2022/04/11 00:39:07;;;;;;;;;;;;;;;-1.09;100.00;96197.53;1029738;28;19922;-74
2022/04/11 00:39:37;;;;;;;;;;;;;;;-1.11;100.00;96196.91;1026142;28;19922;-74
2022/04/11 00:40:08;;;;;;;;;;;;;;;-1.14;100.00;96204.19;1026708;28;19999;-75
2022/04/11 00:40:38;;;;;;;;;;;;;;;-1.16;100.00;96203.56;1030706;28;19926;-73
2022/04/11 00:41:08;;;;;;;;;;;;;;;-1.19;100.00;96199.56;1030441;28;19918;-73
2022/04/11 00:41:38;;;;;;;;;;;;;;;-1.22;100.00;96199.91;1026642;28;19965;-73
2022/04/11 00:42:09;;;;;;;;;;;;;;;-1.23;100.00;96206.06;1026612;28;20477;-73
2022/04/11 00:42:40;;;;;;;;;;;;;;;-1.25;100.00;96206.22;1021929;28;19970;-73
2022/04/11 00:43:28;;;;;;;;;;;;;;;-1.26;100.00;96204.63;1026705;28;20411;-74
2022/04/11 00:43:58;;;;;;;;;;;;;;;-1.30;100.00;96200.81;1032915;28;19968;-72
2022/04/11 00:44:28;;;;;;;;;;;;;;;-1.27;100.00;96208.19;1036915;28;20003;-73
2022/04/11 00:45:03;;;;;;;;;;;;;;;-1.31;100.00;96206.13;1034470;28;19922;-73
2022/04/11 00:45:34;;;;;;;;;;;;;;;-1.34;100.00;96207.28;1031267;28;19941;-73
2022/04/11 00:46:07;;;;;;;;;;;;;;;-1.35;100.00;96205.69;1034322;28;19921;-75
2022/04/11 00:46:38;;;;;;;;;;;;;;;-1.30;100.00;96205.97;1031625;28;19917;-73
2022/04/11 00:47:08;;;;;;;;;;;;;;;-1.34;100.00;96207.28;1035018;28;19928;-73
2022/04/11 00:47:39;;;;;;;;;;;;;;;-1.39;100.00;96204.44;1034608;28;20306;-74
2022/04/11 00:48:09;;;;;;;;;;;;;;;-1.40;100.00;96213.13;1030421;28;19917;-73
2022/04/11 00:48:42;;;;;;;;;;;;;;;-1.37;100.00;96206.84;1034622;28;19922;-75
2022/04/11 00:49:12;;;;;;;;;;;;;;;-1.41;100.00;96206.38;1034769;28;20424;-72
2022/04/11 00:49:49;;;;;;;;;;;;;;;-1.36;100.00;96201.50;1035767;28;20395;-74
2022/04/11 00:50:22;;;;;;;;;;;;;;;-1.34;100.00;96196.19;1033088;28;19918;-74
2022/04/11 00:50:53;;;;;;;;;;;;;;;-1.30;100.00;96200.03;1034691;28;19972;-73
2022/04/11 00:51:26;;;;;;;;;;;;;;;-1.31;100.00;96200.97;1026307;28;20458;-73
2022/04/11 00:51:56;;;;;;;;;;;;;;;-1.35;100.00;96197.94;1022691;28;19953;-74
2022/04/11 00:52:27;;;;;;;;;;;;;;;-1.34;100.00;96197.00;1022393;29;19915;-74
2022/04/11 00:53:00;;;;;;;;;;;;;;;-1.31;100.00;96198.41;1027922;28;19922;-74
2022/04/11 00:53:31;;;;;;;;;;;;;;;-1.36;100.00;96201.50;1019012;29;19922;-73
2022/04/11 00:54:01;;;;;;;;;;;;;;;-1.40;100.00;96200.28;1022694;29;20479;-75
2022/04/11 00:54:34;;;;;;;;;;;;;;;-1.37;100.00;96202.50;1025152;28;20053;-73
2022/04/11 00:55:05;;;;;;;;;;;;;;;-1.39;100.00;96198.50;1026975;28;20463;-72
2022/04/11 00:55:35;;;;;;;;;;;;;;;-1.41;100.00;96201.22;1031168;28;19924;-75
2022/04/11 00:56:09;;;;;;;;;;;;;;;-1.41;100.00;96203.81;1018934;29;19966;-75
2022/04/11 00:56:39;;;;;;;;;;;;;;;-1.46;100.00;96199.19;1021802;28;20022;-72
2022/04/11 00:57:10;;;;;;;;;;;;;;;-1.44;100.00;96199.81;1022768;29;19988;-74
2022/04/11 00:57:40;;;;;;;;;;;;;;;-1.46;100.00;96196.63;1023079;28;19970;-74
2022/04/11 00:58:11;;;;;;;;;;;;;;;-1.48;100.00;96202.91;1026540;28;19968;-74
2022/04/11 00:58:41;;;;;;;;;;;;;;;-1.47;100.00;96197.59;1030969;28;20401;-74
2022/04/11 00:59:13;;;;;;;;;;;;;;;-1.50;100.00;96200.53;1030609;28;19913;-74
2022/04/11 00:59:43;;;;;;;;;;;;;;;-1.52;100.00;96199.09;1030816;28;19960;-73
2022/04/11 01:00:14;;;;;;;;;;;;;;;-1.53;100.00;96202.66;1022715;28;20008;-72
2022/04/11 01:00:44;;;;;;;;;;;;;;;-1.55;100.00;96197.66;1022731;28;20301;-72
2022/04/11 01:01:14;;;;;;;;;;;;;;;-1.52;100.00;96199.09;1027194;28;19933;-73
2022/04/11 01:01:45;;;;;;;;;;;;;;;-1.50;100.00;96202.31;1026686;28;20368;-73
2022/04/11 01:02:15;;;;;;;;;;;;;;;-1.51;100.00;96195.53;1022741;28;19945;-74
2022/04/11 01:02:45;;;;;;;;;;;;;;;-1.54;100.00;96196.72;1026990;28;19920;-74
2022/04/11 01:03:16;;;;;;;;;;;;;;;-1.55;100.00;96197.66;1024872;28;19922;-71
2022/04/11 01:03:46;;;;;;;;;;;;;;;-1.55;100.00;96199.44;1027224;28;20537;-75
2022/04/11 01:04:27;;;;;;;;;;;;;;;-1.57;100.00;96198.84;1026839;28;20390;-73
2022/04/11 01:04:57;;;;;;;;;;;;;;;-1.63;100.00;96196.94;1025895;28;19998;-73
2022/04/11 01:05:27;;;;;;;;;;;;;;;-1.64;100.00;96200.47;1032256;28;20334;-73
2022/04/11 01:05:58;;;;;;;;;;;;;;;-1.64;100.00;96206.44;1032099;28;19914;-72
2022/04/11 01:06:28;;;;;;;;;;;;;;;-1.63;100.00;96202.09;1028112;28;19925;-72
2022/04/11 01:06:58;;;;;;;;;;;;;;;-1.68;100.00;96194.88;1026828;28;20171;-72
2022/04/11 01:07:29;;;;;;;;;;;;;;;-1.61;100.00;96202.72;1030632;28;19913;-73
2022/04/11 01:08:00;;;;;;;;;;;;;;;-1.62;100.00;96201.13;1030781;28;19914;-73
2022/04/11 01:08:31;;;;;;;;;;;;;;;-1.69;100.00;96204.38;1030426;28;20660;-73
2022/04/11 01:09:01;;;;;;;;;;;;;;;-1.71;100.00;96206.34;1030647;28;19918;-73
2022/04/11 01:09:34;;;;;;;;;;;;;;;-1.71;100.00;96197.81;1035389;28;19910;-74
2022/04/11 01:10:05;;;;;;;;;;;;;;;-1.69;100.00;96204.38;1038531;28;19972;-72
2022/04/11 01:10:35;;;;;;;;;;;;;;;-1.64;100.00;96201.31;1033396;28;19917;-73
2022/04/11 01:11:05;;;;;;;;;;;;;;;-1.58;100.00;96199.78;1030620;28;20300;-74
2022/04/11 01:11:36;;;;;;;;;;;;;;;-1.58;100.00;96199.78;1026837;28;19910;-73
2022/04/11 01:12:06;;;;;;;;;;;;;;;-1.57;100.00;96202.19;1022764;28;19957;-73
2022/04/11 01:12:36;;;;;;;;;;;;;;;-1.57;100.00;96201.41;1018956;29;19997;-73
2022/04/11 01:13:07;;;;;;;;;;;;;;;-1.61;100.00;96202.72;1018744;29;20001;-74
2022/04/11 01:13:37;;;;;;;;;;;;;;;-1.57;100.00;96197.06;1022887;28;19949;-74
2022/04/11 01:14:07;;;;;;;;;;;;;;;-1.54;100.00;96204.44;1030085;28;19922;-73
2022/04/11 01:14:38;;;;;;;;;;;;;;;-1.56;100.00;96195.28;1024579;28;19929;-73
2022/04/11 01:15:08;;;;;;;;;;;;;;;-1.57;100.00;96198.84;1022696;29;19926;-74
2022/04/11 01:15:39;;;;;;;;;;;;;;;-1.60;100.00;96199.97;1021047;28;19918;-73
2022/04/11 01:16:12;;;;;;;;;;;;;;;-1.66;100.00;96201.47;1030791;28;19937;-73
2022/04/11 01:16:48;;;;;;;;;;;;;;;-1.64;100.00;96200.47;1026682;28;19989;-70
2022/04/11 01:17:37;;;;;;;;;;;;;;;-1.66;100.00;96196.31;1026291;28;19930;-73
2022/04/11 01:18:08;;;;;;;;;;;;;;;-1.62;100.00;96198.53;1026771;28;19926;-73
2022/04/11 01:18:38;;;;;;;;;;;;;;;-1.63;100.00;96202.09;1030090;28;19930;-72
2022/04/11 01:19:09;;;;;;;;;;;;;;;-1.66;100.00;96200.66;1025021;28;19923;-72
2022/04/11 01:19:39;;;;;;;;;;;;;;;-1.63;100.00;96196.94;1022783;28;19919;-72
2022/04/11 01:20:10;;;;;;;;;;;;;;;-1.66;100.00;96200.66;1022650;29;19954;-73
2022/04/11 01:20:40;;;;;;;;;;;;;;;-1.67;100.00;96196.50;1018829;29;19919;-73
2022/04/11 01:21:11;;;;;;;;;;;;;;;-1.66;100.00;96198.09;1022938;28;19950;-73
2022/04/11 01:21:42;;;;;;;;;;;;;;;-1.66;100.00;96198.09;1030751;28;19928;-73
2022/04/11 01:22:12;;;;;;;;;;;;;;;-1.69;100.00;96191.53;1034432;28;19956;-73
2022/04/11 01:22:45;;;;;;;;;;;;;;;-1.72;100.00;96194.44;1034906;28;19909;-73
2022/04/11 01:23:16;;;;;;;;;;;;;;;-1.70;100.00;96197.66;1034716;28;20614;-72
2022/04/11 01:23:46;;;;;;;;;;;;;;;-1.69;100.00;96201.81;1027391;28;19917;-72
2022/04/11 01:24:18;;;;;;;;;;;;;;;-1.72;100.00;96199.56;1026518;28;19920;-73
2022/04/11 01:24:51;;;;;;;;;;;;;;;-1.74;100.00;96198.97;1019971;29;19919;-73
2022/04/11 01:25:21;;;;;;;;;;;;;;;-1.75;100.00;96192.22;1023800;28;19907;-73
2022/04/11 01:25:52;;;;;;;;;;;;;;;-1.73;100.00;96192.06;1027209;28;19997;-73
2022/04/11 01:26:25;;;;;;;;;;;;;;;-1.76;100.00;96193.19;1031185;28;19918;-72
2022/04/11 01:26:55;;;;;;;;;;;;;;;-1.72;100.00;96188.50;1033771;28;19920;-72
2022/04/11 01:27:26;;;;;;;;;;;;;;;-1.69;100.00;96193.28;1031611;28;19918;-72
2022/04/11 01:27:56;;;;;;;;;;;;;;;-1.69;100.00;96194.09;1034110;28;19910;-74
2022/04/11 01:28:27;;;;;;;;;;;;;;;-1.69;100.00;96199.22;1023757;28;20269;-72
2022/04/11 01:28:57;;;;;;;;;;;;;;;-1.61;100.00;96192.41;1018884;29;19915;-72
2022/04/11 01:29:27;;;;;;;;;;;;;;;-1.60;100.00;96189.69;1022509;28;19953;-72
2022/04/11 01:29:58;;;;;;;;;;;;;;;-1.58;100.00;96186.91;1022909;28;19933;-73
2022/04/11 01:30:31;;;;;;;;;;;;;;;-1.56;100.00;96198.66;1030601;28;19910;-73
2022/04/11 01:31:01;;;;;;;;;;;;;;;-1.56;100.00;96197.84;1030893;28;19921;-71
2022/04/11 01:31:31;;;;;;;;;;;;;;;-1.57;100.00;96189.34;1031958;28;19910;-72
2022/04/11 01:32:02;;;;;;;;;;;;;;;-1.57;100.00;96194.47;1031270;28;20410;-73
2022/04/11 01:32:33;;;;;;;;;;;;;;;-1.60;100.00;96194.81;1027599;28;19946;-72
2022/04/11 01:33:13;;;;;;;;;;;;;;;-1.61;100.00;96197.56;1023405;28;19914;-72
2022/04/11 01:33:46;;;;;;;;;;;;;;;-1.67;100.00;96197.31;1027414;28;19957;-73
2022/04/11 01:34:16;;;;;;;;;;;;;;;-1.67;100.00;96202.44;1024368;28;19930;-72
2022/04/11 01:34:47;;;;;;;;;;;;;;;-1.67;100.00;96197.31;1023312;28;19927;-73
2022/04/11 01:35:21;;;;;;;;;;;;;;;-1.64;100.00;96190.19;1027944;28;19929;-72
2022/04/11 01:35:54;;;;;;;;;;;;;;;-1.63;100.00;96197.75;1028500;28;19929;-73
2022/04/11 01:36:24;;;;;;;;;;;;;;;-1.66;100.00;96198.88;1028219;28;19930;-72
2022/04/11 01:36:54;;;;;;;;;;;;;;;-1.64;100.00;96200.47;1030978;28;19918;-72
2022/04/11 01:37:26;;;;;;;;;;;;;;;-1.66;100.00;96196.31;1031897;28;20422;-72
2022/04/11 01:37:56;;;;;;;;;;;;;;;-1.66;100.00;96198.09;1031654;28;19965;-72
2022/04/11 01:38:28;;;;;;;;;;;;;;;-1.69;100.00;96188.16;1039566;28;20057;-72
2022/04/11 01:38:58;;;;;;;;;;;;;;;-1.70;100.00;96196.84;1031457;28;19921;-73
2022/04/11 01:39:28;;;;;;;;;;;;;;;-1.72;100.00;96194.44;1031411;28;19972;-72
2022/04/11 01:39:59;;;;;;;;;;;;;;;-1.78;100.00;96200.28;1031361;28;19918;-73
2022/04/11 01:40:29;;;;;;;;;;;;;;;-1.78;100.00;96195.13;1031385;28;20391;-71
2022/04/11 01:40:59;;;;;;;;;;;;;;;-1.82;100.00;96193.09;1029203;28;19997;-72
2022/04/11 01:41:29;;;;;;;;;;;;;;;-1.83;100.00;96194.88;1027524;28;19925;-72
2022/04/11 01:42:00;;;;;;;;;;;;;;;-1.84;100.00;96201.00;1031656;28;19976;-72
2022/04/11 01:42:30;;;;;;;;;;;;;;;-1.86;100.00;96191.84;1031257;28;20419;-73
2022/04/11 01:43:00;;;;;;;;;;;;;;;-1.89;100.00;96192.97;1034900;28;19928;-73
2022/04/11 01:43:31;;;;;;;;;;;;;;;-1.88;100.00;96189.44;1035627;28;19980;-72
2022/04/11 01:44:01;;;;;;;;;;;;;;;-1.88;100.00;96199.72;1031498;28;20294;-72
2022/04/11 01:44:31;;;;;;;;;;;;;;;-1.92;100.00;96194.13;1035080;28;20414;-72
2022/04/11 01:45:03;;;;;;;;;;;;;;;-1.89;100.00;96192.97;1035041;28;19925;-71
2022/04/11 01:45:36;;;;;;;;;;;;;;;-1.87;100.00;96197.97;1028018;28;19929;-72
2022/04/11 01:46:07;;;;;;;;;;;;;;;-1.86;100.00;96195.22;1027899;28;19921;-72
2022/04/11 01:46:37;;;;;;;;;;;;;;;-1.83;100.00;96194.88;1027326;28;19965;-72
2022/04/11 01:47:07;;;;;;;;;;;;;;;-1.82;100.00;96188.75;1027425;28;19961;-71
2022/04/11 01:47:39;;;;;;;;;;;;;;;-1.84;100.00;96195.84;1027518;28;20561;-72
2022/04/11 01:48:09;;;;;;;;;;;;;;;-1.83;100.00;96192.28;1027429;28;19922;-72
2022/04/11 01:48:40;;;;;;;;;;;;;;;-1.81;100.00;96198.06;1031341;28;20552;-72
2022/04/11 01:49:10;;;;;;;;;;;;;;;-1.79;100.00;96188.38;1027677;28;19922;-74
2022/04/11 01:49:40;;;;;;;;;;;;;;;-1.78;100.00;96189.97;1033779;28;19921;-72
2022/04/11 01:50:10;;;;;;;;;;;;;;;-1.78;100.00;96189.97;1038747;28;20465;-71
2022/04/11 01:50:41;;;;;;;;;;;;;;;-1.77;100.00;96186.47;1039535;28;19928;-70
2022/04/11 01:51:11;;;;;;;;;;;;;;;-1.79;100.00;96193.53;1039713;28;19925;-72
2022/04/11 01:51:42;;;;;;;;;;;;;;;-1.81;100.00;96195.50;1039701;28;19921;-72
2022/04/11 01:52:12;;;;;;;;;;;;;;;-1.79;100.00;96183.25;1035063;28;19924;-70
2022/04/11 01:52:43;;;;;;;;;;;;;;;-1.82;100.00;96186.16;1033719;28;19922;-72
2022/04/11 01:53:14;;;;;;;;;;;;;;;-1.82;100.00;96193.09;1035360;28;19917;-73
2022/04/11 01:53:44;;;;;;;;;;;;;;;-1.78;100.00;96189.97;1036310;28;19921;-73
2022/04/11 01:54:14;;;;;;;;;;;;;;;-1.73;100.00;96186.91;1039053;28;19921;-73
2022/04/11 01:54:44;;;;;;;;;;;;;;;-1.74;100.00;96188.69;1031987;28;19972;-73
2022/04/11 01:55:15;;;;;;;;;;;;;;;-1.69;100.00;96188.94;1035900;28;19924;-72
2022/04/11 01:55:45;;;;;;;;;;;;;;;-1.66;100.00;96190.38;1033700;28;20386;-72
2022/04/11 01:56:15;;;;;;;;;;;;;;;-1.62;100.00;96186.47;1031789;28;19953;-72
2022/04/11 01:56:46;;;;;;;;;;;;;;;-1.58;100.00;96185.16;1032528;28;19957;-73
2022/04/11 01:57:16;;;;;;;;;;;;;;;-1.56;100.00;96183.22;1031726;28;19922;-72
2022/04/11 01:57:46;;;;;;;;;;;;;;;-1.57;100.00;96193.69;1036028;28;20386;-72
2022/04/11 01:58:17;;;;;;;;;;;;;;;-1.58;100.00;96182.56;1028708;28;20604;-72
2022/04/11 01:58:47;;;;;;;;;;;;;;;-1.58;100.00;96184.34;1027641;28;20344;-73
2022/04/11 01:59:17;;;;;;;;;;;;;;;-1.59;100.00;96186.13;1024070;29;19922;-73
2022/04/11 01:59:48;;;;;;;;;;;;;;;-1.60;100.00;96187.09;1023946;28;19925;-72
2022/04/11 02:00:18;;;;;;;;;;;;;;;-1.60;100.00;96186.31;1024134;28;19932;-72
2022/04/11 02:00:58;;;;;;;;;;;;;;;-1.60;100.00;96191.47;1030660;28;19930;-73
2022/04/11 02:01:29;;;;;;;;;;;;;;;-1.60;100.00;96186.31;1041650;28;19913;-73
2022/04/11 02:01:59;;;;;;;;;;;;;;;-1.60;100.00;96181.97;1036089;28;19921;-71
2022/04/11 02:02:29;;;;;;;;;;;;;;;-1.61;100.00;96184.69;1037173;28;20727;-72
2022/04/11 02:03:00;;;;;;;;;;;;;;;-1.61;100.00;96187.28;1036309;28;19921;-72
2022/04/11 02:03:30;;;;;;;;;;;;;;;-1.63;100.00;96184.09;1036604;28;19909;-73
2022/04/11 02:04:00;;;;;;;;;;;;;;;-1.66;100.00;96178.31;1040429;28;19924;-72
2022/04/11 02:04:32;;;;;;;;;;;;;;;-1.67;100.00;96181.06;1040727;28;19956;-72
2022/04/11 02:05:02;;;;;;;;;;;;;;;-1.68;100.00;96185.41;1037407;28;20012;-73
2022/04/11 02:05:32;;;;;;;;;;;;;;;-1.71;100.00;96180.63;1035493;28;19970;-72
2022/04/11 02:06:02;;;;;;;;;;;;;;;-1.72;100.00;96184.16;1032451;28;19910;-72
2022/04/11 02:06:33;;;;;;;;;;;;;;;-1.75;100.00;96184.50;1036488;28;20016;-74
2022/04/11 02:07:03;;;;;;;;;;;;;;;-1.78;100.00;96182.25;1031275;28;19910;-72
2022/04/11 02:07:33;;;;;;;;;;;;;;;-1.78;100.00;96184.84;1028416;28;19926;-74
2022/04/11 02:08:07;;;;;;;;;;;;;;;-1.79;100.00;96179.88;1032210;28;20365;-71
2022/04/11 02:08:37;;;;;;;;;;;;;;;-1.82;100.00;96183.59;1032898;28;19914;-73
2022/04/11 02:09:07;;;;;;;;;;;;;;;-1.82;100.00;96181.03;1036181;28;19905;-74
2022/04/11 02:09:38;;;;;;;;;;;;;;;-1.78;100.00;96179.69;1031934;28;20428;-72
2022/04/11 02:10:08;;;;;;;;;;;;;;;-1.80;100.00;96181.66;1024471;28;20407;-72
2022/04/11 02:10:39;;;;;;;;;;;;;;;-1.81;100.00;96180.06;1023940;28;19915;-72
2022/04/11 02:11:10;;;;;;;;;;;;;;;-1.78;100.00;96177.13;1020130;29;19915;-72
2022/04/11 02:11:40;;;;;;;;;;;;;;;-1.78;100.00;96174.56;1020325;28;19922;-72
2022/04/11 02:12:10;;;;;;;;;;;;;;;-1.78;100.00;96181.47;1030096;28;19914;-71
2022/04/11 02:12:41;;;;;;;;;;;;;;;-1.74;100.00;96175.81;1036132;28;20349;-73
2022/04/11 02:13:14;;;;;;;;;;;;;;;-1.71;100.00;96175.47;1036081;28;20012;-73
2022/04/11 02:13:44;;;;;;;;;;;;;;;-1.71;100.00;96175.47;1035881;28;20016;-72
2022/04/11 02:14:15;;;;;;;;;;;;;;;-1.68;100.00;96175.13;1025876;28;19990;-71
2022/04/11 02:14:45;;;;;;;;;;;;;;;-1.67;100.00;96174.16;1020082;29;20361;-71
2022/04/11 02:15:15;;;;;;;;;;;;;;;-1.69;100.00;96173.50;1020064;29;19973;-72
2022/04/11 02:15:46;;;;;;;;;;;;;;;-1.71;100.00;96165.19;1022084;28;19978;-72
2022/04/11 02:16:16;;;;;;;;;;;;;;;-1.68;100.00;96174.31;1032168;28;19922;-72
2022/04/11 02:16:46;;;;;;;;;;;;;;;-1.72;100.00;96168.72;1033860;28;19914;-72
2022/04/11 02:17:16;;;;;;;;;;;;;;;-1.75;100.00;96169.06;1038265;28;20286;-73
2022/04/11 02:17:47;;;;;;;;;;;;;;;-1.75;100.00;96174.19;1038363;28;19925;-74
2022/04/11 02:18:17;;;;;;;;;;;;;;;-1.75;100.00;96163.91;1027957;28;19925;-73
2022/04/11 02:18:47;;;;;;;;;;;;;;;-1.76;100.00;96167.47;1027837;28;19969;-72
2022/04/11 02:19:18;;;;;;;;;;;;;;;-1.78;100.00;96164.25;1016258;29;19947;-72
2022/04/11 02:19:48;;;;;;;;;;;;;;;-1.79;100.00;96162.66;1024016;28;19953;-72
2022/04/11 02:20:22;;;;;;;;;;;;;;;-1.81;100.00;96162.06;1028065;28;19911;-72
2022/04/11 02:20:52;;;;;;;;;;;;;;;-1.81;100.00;96164.63;1029124;28;19918;-72
2022/04/11 02:21:24;;;;;;;;;;;;;;;-1.81;100.00;96162.06;1027529;28;20376;-72
2022/04/11 02:21:54;;;;;;;;;;;;;;;-1.80;100.00;96160.28;1024609;28;20049;-72
2022/04/11 02:22:25;;;;;;;;;;;;;;;-1.80;100.00;96165.44;1029894;28;20575;-72
2022/04/11 02:22:56;;;;;;;;;;;;;;;-1.81;100.00;96156.91;1028338;28;19918;-72
2022/04/11 02:23:26;;;;;;;;;;;;;;;-1.83;100.00;96161.44;1032069;28;20008;-72
2022/04/11 02:23:56;;;;;;;;;;;;;;;-1.84;100.00;96159.84;1032395;28;20250;-73
2022/04/11 02:24:29;;;;;;;;;;;;;;;-1.83;100.00;96156.28;1032084;28;19952;-72
2022/04/11 02:24:59;;;;;;;;;;;;;;;-1.81;100.00;96156.09;1032009;28;20408;-72
2022/04/11 02:25:31;;;;;;;;;;;;;;;-1.82;100.00;96163.03;1032415;28;19926;-72
2022/04/11 02:26:02;;;;;;;;;;;;;;;-1.78;100.00;96159.13;1036046;28;19917;-72
2022/04/11 02:26:32;;;;;;;;;;;;;;;-1.78;100.00;96159.13;1036160;28;19914;-71
2022/04/11 02:27:03;;;;;;;;;;;;;;;-1.78;100.00;96158.31;1026886;28;19918;-72
2022/04/11 02:27:33;;;;;;;;;;;;;;;-1.78;100.00;96161.69;1028077;28;19936;-72
2022/04/11 02:28:06;;;;;;;;;;;;;;;-1.77;100.00;96159.94;1028150;28;19921;-72
2022/04/11 02:28:36;;;;;;;;;;;;;;;-1.78;100.00;96158.31;1032597;28;19937;-72
2022/04/11 02:29:07;;;;;;;;;;;;;;;-1.77;100.00;96160.75;1031626;28;19914;-72
2022/04/11 02:29:37;;;;;;;;;;;;;;;-1.76;100.00;96156.38;1032434;28;19918;-72
2022/04/11 02:30:07;;;;;;;;;;;;;;;-1.75;100.00;96163.91;1036092;28;20008;-73
2022/04/11 02:30:39;;;;;;;;;;;;;;;-1.74;100.00;96162.16;1031998;28;19922;-72
2022/04/11 02:31:09;;;;;;;;;;;;;;;-1.77;100.00;96159.94;1031666;28;19910;-72
2022/04/11 02:31:40;;;;;;;;;;;;;;;-1.77;100.00;96160.75;1023906;28;20283;-73
2022/04/11 02:32:10;;;;;;;;;;;;;;;-1.79;100.00;96151.59;1024079;28;19919;-74
2022/04/11 02:32:44;;;;;;;;;;;;;;;-1.79;100.00;96151.59;1030295;28;20394;-72
2022/04/11 02:33:14;;;;;;;;;;;;;;;-1.77;100.00;96150.44;1031896;28;19983;-72
2022/04/11 02:33:44;;;;;;;;;;;;;;;-1.78;100.00;96153.97;1032402;28;19965;-72
2022/04/11 02:34:14;;;;;;;;;;;;;;;-1.80;100.00;96158.50;1035743;28;19940;-72
2022/04/11 02:34:45;;;;;;;;;;;;;;;-1.79;100.00;96147.25;1021875;28;19931;-73
2022/04/11 02:35:16;;;;;;;;;;;;;;;-1.81;100.00;96144.06;1024010;29;19954;-72
2022/04/11 02:35:46;;;;;;;;;;;;;;;-1.79;100.00;96149.81;1023754;28;19961;-72
2022/04/11 02:36:17;;;;;;;;;;;;;;;-1.81;100.00;96153.53;1024106;28;19918;-71
2022/04/11 02:36:47;;;;;;;;;;;;;;;-1.81;100.00;96149.22;1027710;28;19933;-72
2022/04/11 02:37:17;;;;;;;;;;;;;;;-1.80;100.00;96152.56;1035833;28;19971;-73
2022/04/11 02:37:47;;;;;;;;;;;;;;;-1.79;100.00;96149.81;1027784;28;19926;-73
2022/04/11 02:38:18;;;;;;;;;;;;;;;-1.80;100.00;96145.66;1027938;28;19914;-72
2022/04/11 02:38:48;;;;;;;;;;;;;;;-1.78;100.00;96148.81;1027943;28;19925;-72